FranceFixed distance
Luchon Aneto Trail - L'Ultra Lat
8–9 Jul2023
Distance
85km
Finishers
211196 men15 women
Winning time
9:57:48h
Median pace
5.23km/h
Pace distribution
211 finishers · 4.33–8.53 km/h · mean 5.33
Every finisher ran the same 85 km course, so these paces are directly comparable.
Histogram of finisher pace. 211 finishers ranged from 4.33 to 8.53 kilometres per hour, with a mean of 5.33 and a median of 5.23. The busiest band is 4.5 to 5.0 kilometres per hour, with 68 finishers.
Results
Ranks 1–50 of 211
| Rank | Runner | Time | Pace | Cat. | Placing |
|---|---|---|---|---|---|
| 1 | 9:57:48h | 8.53 | M40 | 1st M · 1st M40 | |
| 2 | 10:58:45h | 7.74 | M23 | 2nd M · 1st M23 | |
| 2 | Runcrew / CA Balma | 10:58:45h | 7.74 | M35 | 2nd M · 1st M35 |
| 4 | 11:34:37h | 7.34 | M35 | 4th M · 2nd M35 | |
| 5 | Rrunning Castres | 11:37:07h | 7.32 | M50 | 5th M · 1st M50 |
| 6 | 11:43:20h | 7.25 | M23 | 6th M · 2nd M23 | |
| 7 | 2EP | 11:46:17h | 7.22 | M23 | 7th M · 3rd M23 |
| 8 | Athle 632 Tournefeuille | 12:05:39h | 7.03 | M23 | 8th M · 4th M23 |
| 9 | Bromance Athletic Club | 12:06:32h | 7.02 | M35 | 9th M · 3rd M35 |
| 10 | Salta Bartas | 12:21:51h | 6.88 | M40 | 10th M · 2nd M40 |
| 11 | 12:27:12h | 6.83 | M23 | 11th M · 5th M23 | |
| 12 | 12:42:57h | 6.68 | M23 | 12th M · 6th M23 | |
| 13 | 35Rap | 12:49:08h | 6.63 | M35 | 13th M · 4th M35 |
| 14 | Val Thorens | 12:54:06h | 6.59 | M35 | 14th M · 5th M35 |
| 15 | 12:54:07h | 6.59 | M35 | 15th M · 6th M35 | |
| 16 | 13:02:52h | 6.51 | M23 | 16th M · 7th M23 | |
| 17 | Munarrikolanda Mendi T... | 13:03:57h | 6.51 | M55 | 17th M · 1st M55 |
| 18 | Lagun Onak MB | 13:07:13h | 6.48 | M23 | 18th M · 8th M23 |
| 19 | CSN | 13:11:01h | 6.45 | M35 | 19th M · 7th M35 |
| 20 | E2A | 13:13:51h | 6.42 | M23 | 20th M · 9th M23 |
| 21 | Team Rhuners | 13:28:30h | 6.31 | M35 | 21st M · 8th M35 |
| 22 | 13:33:01h | 6.27 | M35 | 22nd M · 9th M35 | |
| 23 | Spiridon Perigord Pourpre | 13:33:24h | 6.27 | M23 | 23rd M · 10th M23 |
| 24 | Raiders2000 | 13:38:55h | 6.23 | M40 | 24th M · 3rd M40 |
| 25 | Total Technical Touch ... | 13:47:47h | 6.16 | M40 | 25th M · 4th M40 |
| 26 | 13:49:13h | 6.15 | M45 | 26th M · 1st M45 | |
| 27 | 13:53:03h | 6.12 | M45 | 27th M · 2nd M45 | |
| 28 | 13:53:23h | 6.12 | M23 | 28th M · 11th M23 | |
| 29 | Trail du Mourtis | 14:02:15h | 6.05 | M40 | 29th M · 5th M40 |
| 30 | Trail du Mourtis | 14:05:12h | 6.03 | M45 | 30th M · 3rd M45 |
| 31 | Athle 632 | 14:07:04h | 6.02 | M45 | 31st M · 4th M45 |
| 32 | 14:10:20h | 6.00 | M35 | 32nd M · 10th M35 | |
| 33 | 14:17:59h | 5.94 | M40 | 33rd M · 6th M40 | |
| 34 | Esclops D'Azun | 14:26:59h | 5.88 | M35 | 34th M · 11th M35 |
| 35 | 14:37:20h | 5.81 | M35 | 35th M · 12th M35 | |
| 36 | 14:37:36h | 5.81 | M23 | 36th M · 12th M23 | |
| 37 | Ultramical 86 | 14:38:52h | 5.80 | M45 | 37th M · 5th M45 |
| 38 | Trail des 3 Pics | 14:39:04h | 5.80 | M45 | 38th M · 6th M45 |
| 39 | Cherveux Runature | 14:39:28h | 5.80 | M23 | 39th M · 13th M23 |
| 40 | 14:40:57h | 5.79 | M23 | 40th M · 14th M23 | |
| 41 | LG Muret / Patatrail L... | 14:42:19h | 5.78 | M35 | 41st M · 13th M35 |
| 42 | Ultramical86 | 14:44:09h | 5.77 | M35 | 42nd M · 14th M35 |
| 43 | les Coureurs du Soubestre | 14:44:39h | 5.76 | M45 | 43rd M · 7th M45 |
| 44 | 14:46:43h | 5.75 | M40 | 44th M · 7th M40 | |
| 45 | 14:47:04h | 5.75 | M23 | 45th M · 15th M23 | |
| 46 | Gruissan Sport Evenement | 14:50:15h | 5.73 | W35 | 1st F · 1st W35 |
| 47 | Airbus | 14:53:05h | 5.71 | M55 | 46th M · 2nd M55 |
| 48 | Arsudlac | 14:56:42h | 5.69 | M40 | 47th M · 8th M40 |
| 49 | 14:57:35h | 5.68 | M23 | 48th M · 16th M23 | |
| 50 | 14:57:40h | 5.68 | M23 | 49th M · 17th M23 |
- 11st M · 1st M40Time9:57:48hPace8.53Cat.M40
- 22nd M · 1st M23Time10:58:45hPace7.74Cat.M23
- 2Runcrew / CA Balma2nd M · 1st M35Time10:58:45hPace7.74Cat.M35
- 44th M · 2nd M35Time11:34:37hPace7.34Cat.M35
- 5Rrunning Castres5th M · 1st M50Time11:37:07hPace7.32Cat.M50
- 66th M · 2nd M23Time11:43:20hPace7.25Cat.M23
- 72EP7th M · 3rd M23Time11:46:17hPace7.22Cat.M23
- 8Athle 632 Tournefeuille8th M · 4th M23Time12:05:39hPace7.03Cat.M23
- 9Bromance Athletic Club9th M · 3rd M35Time12:06:32hPace7.02Cat.M35
- 10Salta Bartas10th M · 2nd M40Time12:21:51hPace6.88Cat.M40
- 1111th M · 5th M23Time12:27:12hPace6.83Cat.M23
- 1212th M · 6th M23Time12:42:57hPace6.68Cat.M23
- 1335Rap13th M · 4th M35Time12:49:08hPace6.63Cat.M35
- 14Val Thorens14th M · 5th M35Time12:54:06hPace6.59Cat.M35
- 1515th M · 6th M35Time12:54:07hPace6.59Cat.M35
- 1616th M · 7th M23Time13:02:52hPace6.51Cat.M23
- 17Munarrikolanda Mendi T...17th M · 1st M55Time13:03:57hPace6.51Cat.M55
- 18Lagun Onak MB18th M · 8th M23Time13:07:13hPace6.48Cat.M23
- 19CSN19th M · 7th M35Time13:11:01hPace6.45Cat.M35
- 20E2A20th M · 9th M23Time13:13:51hPace6.42Cat.M23
- 21Team Rhuners21st M · 8th M35Time13:28:30hPace6.31Cat.M35
- 2222nd M · 9th M35Time13:33:01hPace6.27Cat.M35
- 23Spiridon Perigord Pourpre23rd M · 10th M23Time13:33:24hPace6.27Cat.M23
- 24Raiders200024th M · 3rd M40Time13:38:55hPace6.23Cat.M40
- 25Total Technical Touch ...25th M · 4th M40Time13:47:47hPace6.16Cat.M40
- 2626th M · 1st M45Time13:49:13hPace6.15Cat.M45
- 2727th M · 2nd M45Time13:53:03hPace6.12Cat.M45
- 2828th M · 11th M23Time13:53:23hPace6.12Cat.M23
- 29Trail du Mourtis29th M · 5th M40Time14:02:15hPace6.05Cat.M40
- 30Trail du Mourtis30th M · 3rd M45Time14:05:12hPace6.03Cat.M45
- 31Athle 63231st M · 4th M45Time14:07:04hPace6.02Cat.M45
- 3232nd M · 10th M35Time14:10:20hPace6.00Cat.M35
- 3333rd M · 6th M40Time14:17:59hPace5.94Cat.M40
- 34Esclops D'Azun34th M · 11th M35Time14:26:59hPace5.88Cat.M35
- 3535th M · 12th M35Time14:37:20hPace5.81Cat.M35
- 3636th M · 12th M23Time14:37:36hPace5.81Cat.M23
- 37Ultramical 8637th M · 5th M45Time14:38:52hPace5.80Cat.M45
- 38Trail des 3 Pics38th M · 6th M45Time14:39:04hPace5.80Cat.M45
- 39Cherveux Runature39th M · 13th M23Time14:39:28hPace5.80Cat.M23
- 4040th M · 14th M23Time14:40:57hPace5.79Cat.M23
- 41LG Muret / Patatrail L...41st M · 13th M35Time14:42:19hPace5.78Cat.M35
- 42Ultramical8642nd M · 14th M35Time14:44:09hPace5.77Cat.M35
- 43les Coureurs du Soubestre43rd M · 7th M45Time14:44:39hPace5.76Cat.M45
- 4444th M · 7th M40Time14:46:43hPace5.75Cat.M40
- 4545th M · 15th M23Time14:47:04hPace5.75Cat.M23
- 46Gruissan Sport Evenement1st F · 1st W35Time14:50:15hPace5.73Cat.W35
- 47Airbus46th M · 2nd M55Time14:53:05hPace5.71Cat.M55
- 48Arsudlac47th M · 8th M40Time14:56:42hPace5.69Cat.M40
- 4948th M · 16th M23Time14:57:35hPace5.68Cat.M23
- 5049th M · 17th M23Time14:57:40hPace5.68Cat.M23
Showing ranks 1–50 of 211